sensor_id;sensor_type;location;lat;lon;timestamp;P1;durP1;ratioP1;P2;durP2;ratioP2
76105;SDS011;64832;45.274;5.880;2023-08-20T00:00:15;14.98;;;4.70;;
76105;SDS011;64832;45.274;5.880;2023-08-20T00:02:43;9.48;;;4.38;;
76105;SDS011;64832;45.274;5.880;2023-08-20T00:05:11;8.40;;;4.18;;
76105;SDS011;64832;45.274;5.880;2023-08-20T00:07:37;7.63;;;4.25;;
76105;SDS011;64832;45.274;5.880;2023-08-20T00:10:03;12.32;;;4.68;;
76105;SDS011;64832;45.274;5.880;2023-08-20T00:12:29;8.93;;;4.63;;
76105;SDS011;64832;45.274;5.880;2023-08-20T00:14:56;8.20;;;4.40;;
76105;SDS011;64832;45.274;5.880;2023-08-20T00:17:23;8.20;;;4.07;;
76105;SDS011;64832;45.274;5.880;2023-08-20T00:19:53;12.57;;;4.90;;
76105;SDS011;64832;45.274;5.880;2023-08-20T00:22:21;12.35;;;4.60;;
76105;SDS011;64832;45.274;5.880;2023-08-20T00:24:47;7.18;;;4.20;;
76105;SDS011;64832;45.274;5.880;2023-08-20T00:27:13;7.82;;;4.53;;
76105;SDS011;64832;45.274;5.880;2023-08-20T00:29:38;6.38;;;4.10;;
76105;SDS011;64832;45.274;5.880;2023-08-20T00:32:04;8.57;;;4.07;;
76105;SDS011;64832;45.274;5.880;2023-08-20T00:34:29;7.85;;;4.32;;
76105;SDS011;64832;45.274;5.880;2023-08-20T00:36:54;10.10;;;4.03;;
76105;SDS011;64832;45.274;5.880;2023-08-20T00:39:20;13.60;;;4.53;;
76105;SDS011;64832;45.274;5.880;2023-08-20T00:41:45;9.68;;;5.18;;
76105;SDS011;64832;45.274;5.880;2023-08-20T00:44:10;11.10;;;4.13;;
76105;SDS011;64832;45.274;5.880;2023-08-20T00:46:36;8.93;;;4.60;;
76105;SDS011;64832;45.274;5.880;2023-08-20T00:49:01;9.10;;;4.25;;
76105;SDS011;64832;45.274;5.880;2023-08-20T00:51:27;8.13;;;4.38;;
76105;SDS011;64832;45.274;5.880;2023-08-20T00:53:53;11.80;;;4.38;;
76105;SDS011;64832;45.274;5.880;2023-08-20T00:56:19;8.73;;;4.30;;
76105;SDS011;64832;45.274;5.880;2023-08-20T00:58:45;7.22;;;4.00;;
76105;SDS011;64832;45.274;5.880;2023-08-20T01:01:10;7.85;;;3.97;;
76105;SDS011;64832;45.274;5.880;2023-08-20T01:03:36;8.23;;;4.20;;
76105;SDS011;64832;45.274;5.880;2023-08-20T01:06:06;6.80;;;4.00;;
76105;SDS011;64832;45.274;5.880;2023-08-20T01:09:01;10.88;;;4.22;;
76105;SDS011;64832;45.274;5.880;2023-08-20T01:11:33;6.72;;;4.32;;
76105;SDS011;64832;45.274;5.880;2023-08-20T01:14:15;12.98;;;4.30;;
76105;SDS011;64832;45.274;5.880;2023-08-20T01:16:41;6.50;;;3.95;;
76105;SDS011;64832;45.274;5.880;2023-08-20T01:19:07;10.02;;;4.60;;
76105;SDS011;64832;45.274;5.880;2023-08-20T01:21:43;9.75;;;3.90;;
76105;SDS011;64832;45.274;5.880;2023-08-20T01:29:25;8.32;;;4.63;;
76105;SDS011;64832;45.274;5.880;2023-08-20T01:31:52;10.98;;;4.30;;
76105;SDS011;64832;45.274;5.880;2023-08-20T01:34:19;7.07;;;4.07;;
76105;SDS011;64832;45.274;5.880;2023-08-20T01:36:46;9.60;;;4.40;;
76105;SDS011;64832;45.274;5.880;2023-08-20T01:39:11;9.07;;;3.88;;
76105;SDS011;64832;45.274;5.880;2023-08-20T01:41:36;6.90;;;3.78;;
76105;SDS011;64832;45.274;5.880;2023-08-20T01:44:02;9.32;;;4.63;;
76105;SDS011;64832;45.274;5.880;2023-08-20T01:46:27;7.55;;;4.38;;
76105;SDS011;64832;45.274;5.880;2023-08-20T01:48:53;7.78;;;4.03;;
76105;SDS011;64832;45.274;5.880;2023-08-20T01:51:18;10.13;;;4.10;;
76105;SDS011;64832;45.274;5.880;2023-08-20T01:53:44;10.02;;;4.20;;
76105;SDS011;64832;45.274;5.880;2023-08-20T01:56:12;8.63;;;3.80;;
76105;SDS011;64832;45.274;5.880;2023-08-20T01:58:38;11.90;;;4.30;;
76105;SDS011;64832;45.274;5.880;2023-08-20T02:01:03;11.70;;;4.25;;
76105;SDS011;64832;45.274;5.880;2023-08-20T02:03:29;7.50;;;3.97;;
76105;SDS011;64832;45.274;5.880;2023-08-20T02:05:54;4.93;;;3.78;;
76105;SDS011;64832;45.274;5.880;2023-08-20T02:08:20;13.43;;;3.90;;
76105;SDS011;64832;45.274;5.880;2023-08-20T02:10:45;6.10;;;3.90;;
76105;SDS011;64832;45.274;5.880;2023-08-20T02:13:11;8.45;;;3.97;;
76105;SDS011;64832;45.274;5.880;2023-08-20T02:15:36;6.60;;;3.67;;
76105;SDS011;64832;45.274;5.880;2023-08-20T02:18:01;9.20;;;4.15;;
76105;SDS011;64832;45.274;5.880;2023-08-20T02:20:27;7.65;;;3.75;;
76105;SDS011;64832;45.274;5.880;2023-08-20T02:22:53;8.60;;;3.60;;
76105;SDS011;64832;45.274;5.880;2023-08-20T02:25:18;10.00;;;3.70;;
76105;SDS011;64832;45.274;5.880;2023-08-20T02:27:44;7.90;;;3.60;;
76105;SDS011;64832;45.274;5.880;2023-08-20T02:30:09;10.45;;;4.10;;
76105;SDS011;64832;45.274;5.880;2023-08-20T02:32:38;5.72;;;3.75;;
76105;SDS011;64832;45.274;5.880;2023-08-20T02:35:04;10.95;;;4.20;;
76105;SDS011;64832;45.274;5.880;2023-08-20T02:37:30;7.93;;;3.50;;
76105;SDS011;64832;45.274;5.880;2023-08-20T02:39:56;8.43;;;3.70;;
76105;SDS011;64832;45.274;5.880;2023-08-20T02:42:21;8.63;;;4.20;;
76105;SDS011;64832;45.274;5.880;2023-08-20T02:44:47;8.40;;;3.80;;
76105;SDS011;64832;45.274;5.880;2023-08-20T02:47:12;9.75;;;4.38;;
76105;SDS011;64832;45.274;5.880;2023-08-20T02:49:38;8.13;;;4.07;;
76105;SDS011;64832;45.274;5.880;2023-08-20T02:52:03;8.30;;;3.53;;
76105;SDS011;64832;45.274;5.880;2023-08-20T02:54:29;6.25;;;3.80;;
76105;SDS011;64832;45.274;5.880;2023-08-20T02:56:57;7.68;;;3.65;;
76105;SDS011;64832;45.274;5.880;2023-08-20T02:59:23;8.38;;;4.10;;
76105;SDS011;64832;45.274;5.880;2023-08-20T03:01:48;7.30;;;4.10;;
76105;SDS011;64832;45.274;5.880;2023-08-20T03:04:13;6.28;;;3.78;;
76105;SDS011;64832;45.274;5.880;2023-08-20T03:06:39;6.43;;;3.58;;
76105;SDS011;64832;45.274;5.880;2023-08-20T03:09:04;6.25;;;3.45;;
76105;SDS011;64832;45.274;5.880;2023-08-20T03:11:30;9.98;;;4.03;;
76105;SDS011;64832;45.274;5.880;2023-08-20T03:13:56;6.95;;;3.88;;
76105;SDS011;64832;45.274;5.880;2023-08-20T03:16:21;8.70;;;4.22;;
76105;SDS011;64832;45.274;5.880;2023-08-20T03:18:47;6.60;;;4.28;;
76105;SDS011;64832;45.274;5.880;2023-08-20T03:21:12;8.32;;;3.95;;
76105;SDS011;64832;45.274;5.880;2023-08-20T03:23:37;6.80;;;4.32;;
76105;SDS011;64832;45.274;5.880;2023-08-20T03:26:03;6.25;;;4.13;;
76105;SDS011;64832;45.274;5.880;2023-08-20T03:28:28;7.07;;;4.03;;
76105;SDS011;64832;45.274;5.880;2023-08-20T03:30:54;9.07;;;4.35;;
76105;SDS011;64832;45.274;5.880;2023-08-20T03:33:19;9.32;;;3.97;;
76105;SDS011;64832;45.274;5.880;2023-08-20T03:35:45;10.75;;;4.10;;
76105;SDS011;64832;45.274;5.880;2023-08-20T03:38:11;11.98;;;4.28;;
76105;SDS011;64832;45.274;5.880;2023-08-20T03:40:36;10.18;;;4.30;;
76105;SDS011;64832;45.274;5.880;2023-08-20T03:43:01;8.57;;;4.10;;
76105;SDS011;64832;45.274;5.880;2023-08-20T03:45:27;10.88;;;4.15;;
76105;SDS011;64832;45.274;5.880;2023-08-20T03:47:53;7.03;;;3.88;;
76105;SDS011;64832;45.274;5.880;2023-08-20T03:50:18;7.70;;;4.15;;
76105;SDS011;64832;45.274;5.880;2023-08-20T03:52:43;7.38;;;4.75;;
76105;SDS011;64832;45.274;5.880;2023-08-20T03:55:09;9.50;;;3.80;;
76105;SDS011;64832;45.274;5.880;2023-08-20T03:57:34;15.40;;;4.07;;
76105;SDS011;64832;45.274;5.880;2023-08-20T04:00:00;11.88;;;4.38;;
76105;SDS011;64832;45.274;5.880;2023-08-20T04:02:25;10.88;;;4.25;;
76105;SDS011;64832;45.274;5.880;2023-08-20T04:04:50;7.25;;;3.78;;
76105;SDS011;64832;45.274;5.880;2023-08-20T04:07:17;8.85;;;3.80;;
76105;SDS011;64832;45.274;5.880;2023-08-20T04:09:43;8.68;;;3.83;;
76105;SDS011;64832;45.274;5.880;2023-08-20T04:12:08;10.60;;;4.45;;
76105;SDS011;64832;45.274;5.880;2023-08-20T04:14:33;12.68;;;4.35;;
76105;SDS011;64832;45.274;5.880;2023-08-20T04:16:59;9.85;;;3.97;;
76105;SDS011;64832;45.274;5.880;2023-08-20T04:19:24;11.13;;;3.97;;
76105;SDS011;64832;45.274;5.880;2023-08-20T04:21:50;8.35;;;3.85;;
76105;SDS011;64832;45.274;5.880;2023-08-20T04:24:16;11.10;;;4.03;;
76105;SDS011;64832;45.274;5.880;2023-08-20T04:26:41;9.77;;;3.92;;
76105;SDS011;64832;45.274;5.880;2023-08-20T04:29:07;9.05;;;3.90;;
76105;SDS011;64832;45.274;5.880;2023-08-20T04:31:32;12.65;;;5.03;;
76105;SDS011;64832;45.274;5.880;2023-08-20T04:33:57;12.38;;;4.70;;
76105;SDS011;64832;45.274;5.880;2023-08-20T04:36:23;9.07;;;4.43;;
76105;SDS011;64832;45.274;5.880;2023-08-20T04:38:48;13.15;;;4.22;;
76105;SDS011;64832;45.274;5.880;2023-08-20T04:41:14;9.73;;;4.50;;
76105;SDS011;64832;45.274;5.880;2023-08-20T04:43:39;10.40;;;4.70;;
76105;SDS011;64832;45.274;5.880;2023-08-20T04:46:04;9.60;;;4.68;;
76105;SDS011;64832;45.274;5.880;2023-08-20T04:48:30;13.52;;;4.97;;
76105;SDS011;64832;45.274;5.880;2023-08-20T04:50:55;9.38;;;4.60;;
76105;SDS011;64832;45.274;5.880;2023-08-20T04:53:20;8.40;;;4.80;;
76105;SDS011;64832;45.274;5.880;2023-08-20T04:55:46;8.40;;;4.68;;
76105;SDS011;64832;45.274;5.880;2023-08-20T04:58:11;15.20;;;4.70;;
76105;SDS011;64832;45.274;5.880;2023-08-20T05:00:36;8.82;;;4.50;;
76105;SDS011;64832;45.274;5.880;2023-08-20T05:03:02;9.23;;;4.40;;
76105;SDS011;64832;45.274;5.880;2023-08-20T05:05:27;10.55;;;4.65;;
76105;SDS011;64832;45.274;5.880;2023-08-20T05:07:53;9.27;;;4.38;;
76105;SDS011;64832;45.274;5.880;2023-08-20T05:10:18;13.85;;;4.57;;
76105;SDS011;64832;45.274;5.880;2023-08-20T05:12:43;11.40;;;4.20;;
76105;SDS011;64832;45.274;5.880;2023-08-20T05:15:09;9.23;;;4.90;;
76105;SDS011;64832;45.274;5.880;2023-08-20T05:17:34;8.30;;;4.28;;
76105;SDS011;64832;45.274;5.880;2023-08-20T05:20:00;10.25;;;4.43;;
76105;SDS011;64832;45.274;5.880;2023-08-20T05:22:25;12.07;;;5.00;;
76105;SDS011;64832;45.274;5.880;2023-08-20T05:24:51;12.13;;;4.90;;
76105;SDS011;64832;45.274;5.880;2023-08-20T05:27:16;14.38;;;4.93;;
76105;SDS011;64832;45.274;5.880;2023-08-20T05:29:44;10.43;;;4.95;;
76105;SDS011;64832;45.274;5.880;2023-08-20T05:32:10;13.23;;;4.55;;
76105;SDS011;64832;45.274;5.880;2023-08-20T05:34:36;11.70;;;4.80;;
76105;SDS011;64832;45.274;5.880;2023-08-20T05:37:02;10.57;;;4.40;;
76105;SDS011;64832;45.274;5.880;2023-08-20T05:39:29;10.48;;;4.70;;
76105;SDS011;64832;45.274;5.880;2023-08-20T05:41:55;11.55;;;4.68;;
76105;SDS011;64832;45.274;5.880;2023-08-20T05:44:21;9.77;;;4.35;;
76105;SDS011;64832;45.274;5.880;2023-08-20T05:46:46;13.13;;;4.57;;
76105;SDS011;64832;45.274;5.880;2023-08-20T05:49:13;11.60;;;5.10;;
76105;SDS011;64832;45.274;5.880;2023-08-20T05:51:42;10.18;;;5.28;;
76105;SDS011;64832;45.274;5.880;2023-08-20T05:54:08;11.13;;;4.78;;
76105;SDS011;64832;45.274;5.880;2023-08-20T05:56:33;10.05;;;4.82;;
76105;SDS011;64832;45.274;5.880;2023-08-20T05:58:58;10.43;;;4.68;;
76105;SDS011;64832;45.274;5.880;2023-08-20T06:01:24;10.57;;;5.10;;
76105;SDS011;64832;45.274;5.880;2023-08-20T06:03:50;12.95;;;4.95;;
76105;SDS011;64832;45.274;5.880;2023-08-20T06:06:16;12.35;;;5.10;;
76105;SDS011;64832;45.274;5.880;2023-08-20T06:08:41;12.02;;;5.05;;
76105;SDS011;64832;45.274;5.880;2023-08-20T06:11:07;14.25;;;5.45;;
76105;SDS011;64832;45.274;5.880;2023-08-20T06:13:32;12.18;;;4.65;;
76105;SDS011;64832;45.274;5.880;2023-08-20T06:15:57;11.15;;;5.05;;
76105;SDS011;64832;45.274;5.880;2023-08-20T06:18:23;14.57;;;4.50;;
76105;SDS011;64832;45.274;5.880;2023-08-20T06:20:48;12.50;;;4.18;;
76105;SDS011;64832;45.274;5.880;2023-08-20T06:23:13;8.50;;;4.68;;
76105;SDS011;64832;45.274;5.880;2023-08-20T06:25:39;12.52;;;4.82;;
76105;SDS011;64832;45.274;5.880;2023-08-20T06:28:04;16.10;;;5.10;;
76105;SDS011;64832;45.274;5.880;2023-08-20T06:30:30;11.40;;;4.32;;
76105;SDS011;64832;45.274;5.880;2023-08-20T06:32:55;14.32;;;5.10;;
76105;SDS011;64832;45.274;5.880;2023-08-20T06:35:20;10.55;;;4.50;;
76105;SDS011;64832;45.274;5.880;2023-08-20T06:37:46;7.90;;;3.90;;
76105;SDS011;64832;45.274;5.880;2023-08-20T06:40:11;8.20;;;4.65;;
76105;SDS011;64832;45.274;5.880;2023-08-20T06:42:38;11.73;;;4.30;;
76105;SDS011;64832;45.274;5.880;2023-08-20T06:45:04;15.02;;;4.88;;
76105;SDS011;64832;45.274;5.880;2023-08-20T06:47:29;13.05;;;4.60;;
76105;SDS011;64832;45.274;5.880;2023-08-20T06:49:55;12.02;;;4.90;;
76105;SDS011;64832;45.274;5.880;2023-08-20T06:52:20;13.90;;;4.85;;
76105;SDS011;64832;45.274;5.880;2023-08-20T06:54:45;12.45;;;4.65;;
76105;SDS011;64832;45.274;5.880;2023-08-20T06:57:11;9.90;;;4.95;;
76105;SDS011;64832;45.274;5.880;2023-08-20T06:59:36;12.80;;;4.65;;
76105;SDS011;64832;45.274;5.880;2023-08-20T07:02:02;16.30;;;5.00;;
76105;SDS011;64832;45.274;5.880;2023-08-20T07:04:28;14.95;;;5.00;;
76105;SDS011;64832;45.274;5.880;2023-08-20T07:06:54;8.65;;;4.35;;
76105;SDS011;64832;45.274;5.880;2023-08-20T07:09:19;11.75;;;4.78;;
76105;SDS011;64832;45.274;5.880;2023-08-20T07:11:44;13.45;;;4.82;;
76105;SDS011;64832;45.274;5.880;2023-08-20T07:14:10;16.13;;;4.90;;
76105;SDS011;64832;45.274;5.880;2023-08-20T07:16:35;17.88;;;4.85;;
76105;SDS011;64832;45.274;5.880;2023-08-20T07:19:00;12.93;;;4.40;;
76105;SDS011;64832;45.274;5.880;2023-08-20T07:21:26;12.30;;;4.75;;
76105;SDS011;64832;45.274;5.880;2023-08-20T07:23:51;13.02;;;5.40;;
76105;SDS011;64832;45.274;5.880;2023-08-20T07:26:17;10.40;;;5.20;;
76105;SDS011;64832;45.274;5.880;2023-08-20T07:28:42;13.45;;;5.05;;
76105;SDS011;64832;45.274;5.880;2023-08-20T07:31:26;15.25;;;4.97;;
76105;SDS011;64832;45.274;5.880;2023-08-20T07:33:53;16.60;;;5.18;;
76105;SDS011;64832;45.274;5.880;2023-08-20T07:36:20;16.08;;;6.30;;
76105;SDS011;64832;45.274;5.880;2023-08-20T07:38:49;13.70;;;4.82;;
76105;SDS011;64832;45.274;5.880;2023-08-20T07:41:16;9.60;;;4.82;;
76105;SDS011;64832;45.274;5.880;2023-08-20T07:43:41;11.55;;;5.03;;
76105;SDS011;64832;45.274;5.880;2023-08-20T07:46:07;11.95;;;5.18;;
76105;SDS011;64832;45.274;5.880;2023-08-20T07:48:33;10.27;;;4.68;;
76105;SDS011;64832;45.274;5.880;2023-08-20T07:50:59;10.27;;;4.72;;
76105;SDS011;64832;45.274;5.880;2023-08-20T07:53:25;12.70;;;4.93;;
76105;SDS011;64832;45.274;5.880;2023-08-20T07:55:51;10.75;;;4.85;;
76105;SDS011;64832;45.274;5.880;2023-08-20T07:58:17;11.82;;;5.18;;
76105;SDS011;64832;45.274;5.880;2023-08-20T08:00:42;10.88;;;4.72;;
76105;SDS011;64832;45.274;5.880;2023-08-20T08:03:08;8.52;;;4.47;;
76105;SDS011;64832;45.274;5.880;2023-08-20T08:05:34;8.75;;;4.65;;
76105;SDS011;64832;45.274;5.880;2023-08-20T08:08:03;9.15;;;4.60;;
76105;SDS011;64832;45.274;5.880;2023-08-20T08:10:28;11.13;;;4.88;;
76105;SDS011;64832;45.274;5.880;2023-08-20T08:12:54;10.52;;;4.22;;
76105;SDS011;64832;45.274;5.880;2023-08-20T08:15:20;8.52;;;4.57;;
76105;SDS011;64832;45.274;5.880;2023-08-20T08:17:45;11.10;;;4.30;;
76105;SDS011;64832;45.274;5.880;2023-08-20T08:20:11;9.65;;;4.40;;
76105;SDS011;64832;45.274;5.880;2023-08-20T08:22:36;9.13;;;4.22;;
76105;SDS011;64832;45.274;5.880;2023-08-20T08:25:01;9.93;;;4.30;;
76105;SDS011;64832;45.274;5.880;2023-08-20T08:27:27;8.10;;;4.10;;
76105;SDS011;64832;45.274;5.880;2023-08-20T08:29:52;7.80;;;3.90;;
76105;SDS011;64832;45.274;5.880;2023-08-20T08:32:18;9.52;;;4.30;;
76105;SDS011;64832;45.274;5.880;2023-08-20T08:34:43;6.88;;;4.80;;
76105;SDS011;64832;45.274;5.880;2023-08-20T08:37:08;8.25;;;4.60;;
76105;SDS011;64832;45.274;5.880;2023-08-20T08:39:34;6.68;;;3.95;;
76105;SDS011;64832;45.274;5.880;2023-08-20T08:42:00;8.05;;;4.28;;
76105;SDS011;64832;45.274;5.880;2023-08-20T08:44:29;8.68;;;4.22;;
76105;SDS011;64832;45.274;5.880;2023-08-20T08:46:58;11.98;;;4.75;;
76105;SDS011;64832;45.274;5.880;2023-08-20T08:49:24;7.40;;;4.25;;
76105;SDS011;64832;45.274;5.880;2023-08-20T08:51:56;10.05;;;4.70;;
76105;SDS011;64832;45.274;5.880;2023-08-20T08:54:22;8.13;;;4.05;;
76105;SDS011;64832;45.274;5.880;2023-08-20T08:56:48;5.88;;;3.85;;
76105;SDS011;64832;45.274;5.880;2023-08-20T08:59:14;5.90;;;3.88;;
76105;SDS011;64832;45.274;5.880;2023-08-20T09:01:40;8.43;;;4.68;;
76105;SDS011;64832;45.274;5.880;2023-08-20T09:04:06;7.90;;;4.10;;
76105;SDS011;64832;45.274;5.880;2023-08-20T09:06:47;7.13;;;4.07;;
76105;SDS011;64832;45.274;5.880;2023-08-20T09:09:14;7.15;;;3.97;;
76105;SDS011;64832;45.274;5.880;2023-08-20T09:11:41;11.07;;;4.03;;
76105;SDS011;64832;45.274;5.880;2023-08-20T09:14:07;7.78;;;3.88;;
76105;SDS011;64832;45.274;5.880;2023-08-20T09:16:32;8.25;;;4.10;;
76105;SDS011;64832;45.274;5.880;2023-08-20T09:19:01;7.35;;;3.95;;
76105;SDS011;64832;45.274;5.880;2023-08-20T09:21:27;5.40;;;3.90;;
76105;SDS011;64832;45.274;5.880;2023-08-20T09:23:58;5.10;;;3.55;;
76105;SDS011;64832;45.274;5.880;2023-08-20T09:28:54;5.82;;;3.63;;
76105;SDS011;64832;45.274;5.880;2023-08-20T09:31:20;7.43;;;4.40;;
76105;SDS011;64832;45.274;5.880;2023-08-20T09:33:52;5.28;;;3.40;;
76105;SDS011;64832;45.274;5.880;2023-08-20T09:36:19;5.70;;;3.50;;
76105;SDS011;64832;45.274;5.880;2023-08-20T09:38:54;11.65;;;4.00;;
76105;SDS011;64832;45.274;5.880;2023-08-20T09:41:19;5.78;;;3.92;;
76105;SDS011;64832;45.274;5.880;2023-08-20T09:43:46;5.45;;;3.47;;
76105;SDS011;64832;45.274;5.880;2023-08-20T09:46:13;8.77;;;3.97;;
76105;SDS011;64832;45.274;5.880;2023-08-20T09:48:41;4.72;;;4.10;;
76105;SDS011;64832;45.274;5.880;2023-08-20T09:51:11;5.63;;;3.78;;
76105;SDS011;64832;45.274;5.880;2023-08-20T09:53:52;5.15;;;3.60;;
76105;SDS011;64832;45.274;5.880;2023-08-20T09:56:40;5.45;;;3.67;;
76105;SDS011;64832;45.274;5.880;2023-08-20T09:59:08;8.32;;;3.58;;
76105;SDS011;64832;45.274;5.880;2023-08-20T10:01:35;6.22;;;3.55;;
76105;SDS011;64832;45.274;5.880;2023-08-20T10:04:02;7.90;;;4.00;;
76105;SDS011;64832;45.274;5.880;2023-08-20T10:06:28;8.05;;;3.72;;
76105;SDS011;64832;45.274;5.880;2023-08-20T10:08:55;6.07;;;3.50;;
76105;SDS011;64832;45.274;5.880;2023-08-20T10:11:21;6.15;;;3.70;;
76105;SDS011;64832;45.274;5.880;2023-08-20T10:13:46;5.18;;;3.47;;
76105;SDS011;64832;45.274;5.880;2023-08-20T10:16:12;6.88;;;3.25;;
76105;SDS011;64832;45.274;5.880;2023-08-20T10:18:38;7.40;;;3.67;;
76105;SDS011;64832;45.274;5.880;2023-08-20T10:21:05;5.20;;;3.30;;
76105;SDS011;64832;45.274;5.880;2023-08-20T10:23:33;5.65;;;3.60;;
76105;SDS011;64832;45.274;5.880;2023-08-20T10:26:08;5.45;;;3.28;;
76105;SDS011;64832;45.274;5.880;2023-08-20T10:28:34;5.40;;;3.53;;
76105;SDS011;64832;45.274;5.880;2023-08-20T10:33:33;3.92;;;3.17;;
76105;SDS011;64832;45.274;5.880;2023-08-20T10:36:13;8.15;;;3.25;;
76105;SDS011;64832;45.274;5.880;2023-08-20T10:38:40;8.77;;;3.55;;
76105;SDS011;64832;45.274;5.880;2023-08-20T10:41:06;5.97;;;3.40;;
76105;SDS011;64832;45.274;5.880;2023-08-20T10:43:37;5.68;;;3.42;;
76105;SDS011;64832;45.274;5.880;2023-08-20T10:48:29;7.25;;;3.40;;
76105;SDS011;64832;45.274;5.880;2023-08-20T10:50:55;5.35;;;3.20;;
76105;SDS011;64832;45.274;5.880;2023-08-20T10:53:21;4.13;;;3.30;;
76105;SDS011;64832;45.274;5.880;2023-08-20T10:55:48;5.75;;;3.17;;
76105;SDS011;64832;45.274;5.880;2023-08-20T10:58:14;5.93;;;3.08;;
76105;SDS011;64832;45.274;5.880;2023-08-20T11:00:41;6.05;;;3.30;;
76105;SDS011;64832;45.274;5.880;2023-08-20T11:03:07;4.28;;;3.42;;
76105;SDS011;64832;45.274;5.880;2023-08-20T11:05:33;5.30;;;3.35;;
76105;SDS011;64832;45.274;5.880;2023-08-20T11:07:59;7.35;;;4.07;;
76105;SDS011;64832;45.274;5.880;2023-08-20T11:10:26;4.85;;;3.50;;
76105;SDS011;64832;45.274;5.880;2023-08-20T11:12:51;4.78;;;3.20;;
76105;SDS011;64832;45.274;5.880;2023-08-20T11:15:16;4.65;;;3.30;;
76105;SDS011;64832;45.274;5.880;2023-08-20T11:17:42;5.63;;;3.10;;
76105;SDS011;64832;45.274;5.880;2023-08-20T11:20:12;5.55;;;3.13;;
76105;SDS011;64832;45.274;5.880;2023-08-20T11:22:39;5.63;;;3.15;;
76105;SDS011;64832;45.274;5.880;2023-08-20T11:25:05;5.40;;;2.90;;
76105;SDS011;64832;45.274;5.880;2023-08-20T11:27:35;4.32;;;3.15;;
76105;SDS011;64832;45.274;5.880;2023-08-20T11:30:00;6.18;;;2.97;;
76105;SDS011;64832;45.274;5.880;2023-08-20T11:32:29;6.47;;;3.35;;
76105;SDS011;64832;45.274;5.880;2023-08-20T11:34:55;5.18;;;3.30;;
76105;SDS011;64832;45.274;5.880;2023-08-20T11:37:21;7.05;;;3.10;;
76105;SDS011;64832;45.274;5.880;2023-08-20T11:39:47;5.07;;;3.13;;
76105;SDS011;64832;45.274;5.880;2023-08-20T11:42:14;7.22;;;3.10;;
76105;SDS011;64832;45.274;5.880;2023-08-20T11:44:43;6.82;;;3.33;;
76105;SDS011;64832;45.274;5.880;2023-08-20T11:47:16;4.97;;;3.40;;
76105;SDS011;64832;45.274;5.880;2023-08-20T11:49:42;5.03;;;3.10;;
76105;SDS011;64832;45.274;5.880;2023-08-20T11:52:08;4.97;;;3.13;;
76105;SDS011;64832;45.274;5.880;2023-08-20T11:54:34;6.45;;;3.22;;
76105;SDS011;64832;45.274;5.880;2023-08-20T11:57:04;4.68;;;3.25;;
76105;SDS011;64832;45.274;5.880;2023-08-20T11:59:31;7.07;;;3.13;;
76105;SDS011;64832;45.274;5.880;2023-08-20T12:01:58;4.63;;;2.92;;
76105;SDS011;64832;45.274;5.880;2023-08-20T12:04:30;5.80;;;2.95;;
76105;SDS011;64832;45.274;5.880;2023-08-20T12:07:09;5.78;;;3.10;;
76105;SDS011;64832;45.274;5.880;2023-08-20T12:09:39;5.97;;;3.00;;
76105;SDS011;64832;45.274;5.880;2023-08-20T12:12:05;4.68;;;3.20;;
76105;SDS011;64832;45.274;5.880;2023-08-20T12:14:32;5.47;;;2.90;;
76105;SDS011;64832;45.274;5.880;2023-08-20T12:16:57;4.60;;;2.97;;
76105;SDS011;64832;45.274;5.880;2023-08-20T12:19:23;5.47;;;3.05;;
76105;SDS011;64832;45.274;5.880;2023-08-20T12:21:49;6.97;;;3.13;;
76105;SDS011;64832;45.274;5.880;2023-08-20T12:24:15;4.35;;;2.92;;
76105;SDS011;64832;45.274;5.880;2023-08-20T12:26:41;9.55;;;3.45;;
76105;SDS011;64832;45.274;5.880;2023-08-20T12:29:07;6.07;;;3.22;;
76105;SDS011;64832;45.274;5.880;2023-08-20T12:31:32;4.28;;;2.90;;
76105;SDS011;64832;45.274;5.880;2023-08-20T12:33:58;5.05;;;2.88;;
76105;SDS011;64832;45.274;5.880;2023-08-20T12:36:24;4.82;;;2.90;;
76105;SDS011;64832;45.274;5.880;2023-08-20T12:38:49;5.30;;;3.03;;
76105;SDS011;64832;45.274;5.880;2023-08-20T12:41:15;3.60;;;2.60;;
76105;SDS011;64832;45.274;5.880;2023-08-20T12:43:40;6.78;;;2.90;;
76105;SDS011;64832;45.274;5.880;2023-08-20T12:46:06;3.70;;;2.90;;
76105;SDS011;64832;45.274;5.880;2023-08-20T12:48:31;6.32;;;3.00;;
76105;SDS011;64832;45.274;5.880;2023-08-20T12:50:57;5.60;;;2.80;;
76105;SDS011;64832;45.274;5.880;2023-08-20T12:53:23;3.65;;;2.78;;
76105;SDS011;64832;45.274;5.880;2023-08-20T12:55:48;4.35;;;2.70;;
76105;SDS011;64832;45.274;5.880;2023-08-20T12:58:13;5.30;;;2.97;;
76105;SDS011;64832;45.274;5.880;2023-08-20T13:00:39;5.13;;;3.13;;
76105;SDS011;64832;45.274;5.880;2023-08-20T13:03:04;5.32;;;2.90;;
76105;SDS011;64832;45.274;5.880;2023-08-20T13:05:30;4.65;;;2.72;;
76105;SDS011;64832;45.274;5.880;2023-08-20T13:07:56;5.25;;;2.95;;
76105;SDS011;64832;45.274;5.880;2023-08-20T13:10:23;3.45;;;2.70;;
76105;SDS011;64832;45.274;5.880;2023-08-20T13:12:50;5.75;;;3.20;;
76105;SDS011;64832;45.274;5.880;2023-08-20T13:15:18;5.05;;;2.78;;
76105;SDS011;64832;45.274;5.880;2023-08-20T13:17:46;4.28;;;2.88;;
76105;SDS011;64832;45.274;5.880;2023-08-20T13:20:13;3.88;;;3.08;;
76105;SDS011;64832;45.274;5.880;2023-08-20T13:22:39;4.38;;;2.97;;
76105;SDS011;64832;45.274;5.880;2023-08-20T13:25:05;4.00;;;2.88;;
76105;SDS011;64832;45.274;5.880;2023-08-20T13:27:30;4.30;;;2.67;;
76105;SDS011;64832;45.274;5.880;2023-08-20T13:29:56;6.45;;;2.90;;
76105;SDS011;64832;45.274;5.880;2023-08-20T13:32:21;6.38;;;2.67;;
76105;SDS011;64832;45.274;5.880;2023-08-20T13:34:47;3.63;;;2.83;;
76105;SDS011;64832;45.274;5.880;2023-08-20T13:37:12;4.15;;;2.67;;
76105;SDS011;64832;45.274;5.880;2023-08-20T13:39:37;4.18;;;2.92;;
76105;SDS011;64832;45.274;5.880;2023-08-20T13:42:03;4.28;;;3.00;;
76105;SDS011;64832;45.274;5.880;2023-08-20T13:44:28;4.65;;;3.17;;
76105;SDS011;64832;45.274;5.880;2023-08-20T13:46:54;5.00;;;2.78;;
76105;SDS011;64832;45.274;5.880;2023-08-20T13:49:20;6.57;;;2.92;;
76105;SDS011;64832;45.274;5.880;2023-08-20T13:51:45;5.70;;;2.83;;
76105;SDS011;64832;45.274;5.880;2023-08-20T13:54:10;4.32;;;2.92;;
76105;SDS011;64832;45.274;5.880;2023-08-20T13:56:36;4.25;;;2.85;;
76105;SDS011;64832;45.274;5.880;2023-08-20T13:59:01;3.58;;;2.75;;
76105;SDS011;64832;45.274;5.880;2023-08-20T14:01:27;5.10;;;2.72;;
76105;SDS011;64832;45.274;5.880;2023-08-20T14:03:52;3.88;;;2.47;;
76105;SDS011;64832;45.274;5.880;2023-08-20T14:06:18;5.13;;;2.90;;
76105;SDS011;64832;45.274;5.880;2023-08-20T14:08:44;6.15;;;2.75;;
76105;SDS011;64832;45.274;5.880;2023-08-20T14:11:09;4.47;;;2.67;;
76105;SDS011;64832;45.274;5.880;2023-08-20T14:13:35;3.92;;;2.63;;
76105;SDS011;64832;45.274;5.880;2023-08-20T14:16:00;4.13;;;2.83;;
76105;SDS011;64832;45.274;5.880;2023-08-20T14:18:26;4.60;;;2.65;;
76105;SDS011;64832;45.274;5.880;2023-08-20T14:20:52;3.20;;;2.40;;
76105;SDS011;64832;45.274;5.880;2023-08-20T14:23:17;3.15;;;2.80;;
76105;SDS011;64832;45.274;5.880;2023-08-20T14:25:42;3.88;;;2.70;;
76105;SDS011;64832;45.274;5.880;2023-08-20T14:28:08;4.25;;;2.50;;
76105;SDS011;64832;45.274;5.880;2023-08-20T14:30:39;4.40;;;2.70;;
76105;SDS011;64832;45.274;5.880;2023-08-20T14:33:05;5.63;;;2.63;;
76105;SDS011;64832;45.274;5.880;2023-08-20T14:35:31;3.58;;;2.50;;
76105;SDS011;64832;45.274;5.880;2023-08-20T14:37:57;3.05;;;2.60;;
76105;SDS011;64832;45.274;5.880;2023-08-20T14:40:23;6.00;;;2.70;;
76105;SDS011;64832;45.274;5.880;2023-08-20T14:42:48;3.88;;;2.85;;
76105;SDS011;64832;45.274;5.880;2023-08-20T14:45:14;4.55;;;2.45;;
76105;SDS011;64832;45.274;5.880;2023-08-20T14:47:40;5.18;;;2.40;;
76105;SDS011;64832;45.274;5.880;2023-08-20T14:50:05;3.63;;;2.40;;